Latest Weather Observations for Urandangi

IDQ60801

Issued at 10:22 pm EST Thursday 24 September 2020 (issued every 10 minutes, with the page automatically refreshed every 10 minutes)

About weather observations | Map of weather stations | Latest weather observations for QLD | Other Formats
Station Details ID: 037058 Name: URANDANGI AERODROME Lat: -21.60 Lon: 138.37 Height: 178.6 m
Data from the previous 72 hours. | See also: Recent months at Urandangi
Date/Time
EST
Temp
°C
App
Temp
°C
Dew
Point
°C
Rel
Hum
%
Delta-T
°C
Wind Press
QNH
hPa
Press
MSL
hPa
Rain since
9am
mm
Dir  Spd
km/h
Gust
km/h
Spd
kts
Gust
kts
24/10:00pm 18.8 15.5 0.4 29 8.2 SSE 7 7 4 4 1017.0 1016.4 0.0
24/09:30pm 19.3 16.0 0.4 28 8.4 SSE 7 7 4 4 1016.8 1016.2 0.0
24/09:00pm 20.1 17.1 0.5 27 8.8 SSE 6 7 3 4 1016.8 1016.2 0.0
24/08:30pm 21.0 17.7 0.2 25 9.4 SSE 7 7 4 4 1016.5 1015.8 0.0
24/08:00pm 21.9 18.6 0.4 24 9.8 SSE 7 7 4 4 1016.4 1015.7 0.0
24/07:30pm 22.8 19.1 0.0 22 10.4 SSE 9 9 5 5 1016.2 1015.5 0.0
24/07:00pm 24.8 21.0 -1.1 18 11.7 SSE 9 13 5 7 1015.8 1015.1 0.0
24/06:30pm 27.0 22.4 -0.9 16 12.9 SSE 13 19 7 10 1015.3 1014.6 0.0
24/06:00pm 28.0 23.3 -2.0 14 13.7 SE 13 20 7 11 1015.1 1014.4 0.0
24/05:30pm 28.7 24.1 -1.4 14 14.0 SE 13 20 7 11 1014.9 1014.2 0.0
24/05:00pm 28.8 24.0 -2.3 13 14.2 SE 13 22 7 12 1014.8 1014.1 0.0
24/04:30pm 29.3 25.0 -1.9 13 14.5 SSE 11 20 6 11 1015.0 1014.3 0.0
24/04:00pm 29.0 24.2 -2.2 13 14.3 SSE 13 19 7 10 1015.0 1014.3 0.0
24/03:30pm 29.2 23.7 -2.0 13 14.4 S 17 24 9 13 1015.5 1014.8 0.0
24/03:00pm 28.7 23.3 -1.4 14 14.0 SE 17 26 9 14 1015.7 1015.0 0.0
24/02:30pm 28.8 23.4 -1.3 14 14.0 SE 17 30 9 16 1016.0 1015.3 0.0
24/02:00pm 28.4 23.0 -1.6 14 13.9 SE 17 28 9 15 1016.7 1016.1 0.0
24/01:30pm 28.0 22.1 -2.0 14 13.7 ESE 19 28 10 15 1017.1 1016.5 0.0
24/01:00pm 27.6 21.8 -1.3 15 13.3 ESE 19 30 10 16 1017.6 1017.0 0.0
24/12:30pm 26.9 20.9 -1.9 15 13.1 SE 20 37 11 20 1018.2 1017.5 0.0
24/12:00pm 26.7 20.4 -1.2 16 12.8 SE 22 32 12 17 1018.8 1018.1 0.0
24/11:30am 25.6 19.3 -1.2 17 12.2 SE 22 32 12 17 1019.4 1018.7 0.0
24/11:00am 25.2 18.5 -0.8 18 11.9 ESE 24 41 13 22 1020.0 1019.3 0.0
24/10:30am 23.9 17.2 -1.1 19 11.3 ESE 24 33 13 18 1020.1 1019.4 0.0
24/10:00am 23.5 16.9 -0.7 20 10.9 ESE 24 33 13 18 1020.5 1019.8 0.0
24/09:30am 22.1 15.2 0.0 23 10.0 SE 26 39 14 21 1020.7 1020.0 0.0
24/09:00am 20.9 14.0 0.2 25 9.3 SE 26 35 14 19 1020.9 1020.2 0.0
24/08:30am 19.7 13.2 0.2 27 8.7 SE 24 33 13 18 1020.6 1019.9 0.0
24/08:00am 18.3 12.8 0.4 30 7.9 SE 19 26 10 14 1020.5 1019.8 0.0
24/07:30am 16.8 12.0 0.5 33 7.1 SE 15 22 8 12 1020.2 1019.5 0.0
24/07:00am 16.5 11.8 1.0 35 6.8 SSE 15 20 8 11 1019.6 1018.9 0.0
24/06:30am 16.6 12.3 0.7 34 7.0 SSE 13 15 7 8 1019.6 1018.9 0.0
24/06:00am 17.2 12.5 0.8 33 7.2 SSE 15 20 8 11 1019.2 1018.5 0.0
24/05:30am 17.2 12.1 0.8 33 7.3 SSE 17 20 9 11 1018.4 1017.7 0.0
24/05:00am 17.7 12.7 1.2 33 7.4 SSE 17 24 9 13 1018.3 1017.6 0.0
24/04:30am 18.2 13.2 1.3 32 7.6 SSE 17 20 9 11 1018.1 1017.4 0.0
24/04:00am 18.1 13.6 2.0 34 7.3 SSE 15 24 8 13 1018.0 1017.3 0.0
24/03:30am 18.1 14.0 2.0 34 7.4 SSE 13 17 7 9 1018.1 1017.4 0.0
24/03:00am 18.8 13.9 2.2 33 7.6 SSE 17 22 9 12 1017.9 1017.2 0.0
24/02:30am 19.0 14.1 2.0 32 7.8 SSE 17 20 9 11 1018.0 1017.3 0.0
24/02:00am 19.0 14.9 2.4 33 7.7 SE 13 17 7 9 1018.2 1017.5 0.0
24/01:30am 19.4 15.0 2.7 33 7.8 SSE 15 20 8 11 1018.4 1017.7 0.0
24/01:00am 19.7 15.7 3.0 33 7.9 SSE 13 17 7 9 1018.5 1017.8 0.0
24/12:30am 19.6 15.3 3.3 34 7.7 SE 15 17 8 9 1018.4 1017.7 0.0
24/12:00am 19.9 16.3 3.2 33 7.9 SSE 11 15 6 8 1018.7 1018.0 0.0
 
Date/Time
EST
Temp
°C
App
Temp
°C
Dew
Point
°C
Rel
Hum
%
Delta-T
°C
Wind Press
QNH
hPa
Press
MSL
hPa
Rain since
9am
mm
Dir  Spd
km/h
Gust
km/h
Spd
kts
Gust
kts
23/11:30pm 19.8 16.1 2.6 32 8.1 SE 11 15 6 8 1018.7 1018.0 0.0
23/11:00pm 20.1 16.3 1.5 29 8.5 SSE 11 11 6 6 1018.9 1018.2 0.0
23/10:30pm 21.7 17.9 1.9 27 9.3 SE 11 13 6 7 1018.8 1018.1 0.0
23/10:00pm 22.9 19.0 1.3 24 10.1 SE 11 15 6 8 1018.8 1018.1 0.0
23/09:30pm 23.7 19.5 1.4 23 10.5 SE 13 17 7 9 1018.8 1018.1 0.0
23/09:00pm 24.5 19.4 0.8 21 11.1 SE 17 20 9 11 1018.5 1017.8 0.0
23/08:30pm 24.9 19.7 0.4 20 11.4 SE 17 22 9 12 1018.2 1017.5 0.0
23/08:00pm 25.9 20.4 0.5 19 12.0 SE 19 26 10 14 1017.9 1017.2 0.0
23/07:30pm 26.3 21.1 0.1 18 12.3 SE 17 24 9 13 1017.4 1016.8 0.0
23/07:00pm 27.1 20.6 0.0 17 12.8 SE 24 33 13 18 1017.1 1016.5 0.0
23/06:30pm 27.9 20.9 -0.2 16 13.3 SE 26 35 14 19 1016.8 1016.2 0.0
23/06:00pm 28.7 21.5 0.4 16 13.6 SE 28 41 15 22 1016.4 1015.7 0.0
23/05:30pm 29.0 22.2 0.7 16 13.7 SE 26 43 14 23 1016.2 1015.5 0.0
23/05:00pm 29.6 22.3 0.2 15 14.1 SE 28 37 15 20 1016.1 1015.4 0.0
23/04:30pm 29.4 22.1 0.1 15 14.1 SE 28 41 15 22 1016.1 1015.4 0.0
23/04:00pm 29.0 22.0 -0.2 15 13.9 SE 26 41 14 22 1016.2 1015.5 0.0
23/03:30pm 29.1 21.9 0.7 16 13.8 SE 28 37 15 20 1016.6 1016.0 0.0
23/03:00pm 29.4 22.5 0.1 15 14.0 SE 26 41 14 22 1017.2 1016.6 0.0
23/02:30pm 30.3 23.5 0.8 15 14.4 SE 26 37 14 20 1017.4 1016.8 0.0
23/02:00pm 29.6 22.3 0.2 15 14.1 SE 28 41 15 22 1017.6 1017.0 0.0
23/01:30pm 29.6 22.7 0.2 15 14.2 SSE 26 41 14 22 1018.3 1017.6 0.0
23/01:00pm 29.0 22.0 -0.2 15 13.9 SE 26 39 14 21 1018.6 1017.9 0.0
23/12:30pm 29.2 22.8 0.8 16 13.8 SE 24 33 13 18 1019.4 1018.7 0.0
23/12:00pm 28.8 22.0 0.5 16 13.6 SE 26 39 14 21 1019.8 1019.1 0.0
23/11:30am 28.1 20.5 0.8 17 13.2 SE 30 44 16 24 1020.0 1019.3 0.0
23/11:00am 26.6 18.7 1.1 19 12.2 SE 32 41 17 22 1020.2 1019.5 0.0
23/10:30am 25.4 17.9 1.5 21 11.4 SE 30 44 16 24 1020.2 1019.5 0.0
23/10:00am 25.3 18.3 2.1 22 11.2 SE 28 39 15 21 1020.6 1019.9 0.0
23/09:30am 24.4 18.0 3.1 25 10.4 SE 26 39 14 21 1020.8 1020.1 0.0
23/09:00am 23.3 16.0 2.7 26 9.9 SE 30 39 16 21 1020.6 1019.9 0.6
23/08:30am 22.4 16.3 3.0 28 9.3 SE 24 30 13 16 1020.4 1019.7 0.6
23/08:00am 21.3 15.6 3.0 30 8.7 SSE 22 32 12 17 1019.7 1019.0 0.6
23/07:30am 20.3 15.6 3.1 32 8.2 SSE 17 22 9 12 1019.6 1018.9 0.6
23/07:00am 19.9 15.7 3.6 34 7.8 SSE 15 20 8 11 1018.9 1018.2 0.6
23/06:30am 20.1 15.7 2.9 32 8.1 SSE 15 20 8 11 1018.5 1017.8 0.6
23/06:00am 20.4 16.2 3.6 33 8.1 SE 15 17 8 9 1017.5 1016.9 0.6
23/05:30am 20.7 16.8 3.4 32 8.3 SE 13 19 7 10 1017.5 1016.9 0.6
23/05:00am 21.0 16.7 3.2 31 8.5 SE 15 20 8 11 1017.1 1016.5 0.6
23/04:30am 21.4 16.3 3.1 30 8.8 SE 19 28 10 15 1016.9 1016.3 0.6
23/04:00am 21.9 17.4 4.0 31 8.7 SE 17 26 9 14 1016.8 1016.2 0.6
23/03:30am 22.2 17.7 6.0 35 8.2 SE 19 28 10 15 1016.4 1015.7 0.6
23/03:00am 22.3 19.6 10.5 47 6.5 SE 15 20 8 11 1016.4 1015.7 0.6
23/02:30am 22.6 19.7 12.3 52 5.9 SSE 19 28 10 15 1016.4 1015.7 0.6
23/02:00am 21.8 21.3 14.9 65 4.1 ESE 11 13 6 7 1016.1 1015.4 0.6
23/01:30am 22.0 22.5 14.9 64 4.2 ESE 6 7 3 4 1016.3 1015.6 0.6
23/01:00am 21.9 20.8 14.3 62 4.5 ESE 13 20 7 11 1016.3 1015.6 0.6
23/12:30am 23.1 23.3 13.0 53 5.9 E 4 13 2 7 1017.2 1016.6 0.6
23/12:00am 24.9 23.9 11.1 42 7.8 SE 7 17 4 9 1016.8 1016.2 0.2
 
Date/Time
EST
Temp
°C
App
Temp
°C
Dew
Point
°C
Rel
Hum
%
Delta-T
°C
Wind Press
QNH
hPa
Press
MSL
hPa
Rain since
9am
mm
Dir  Spd
km/h
Gust
km/h
Spd
kts
Gust
kts
22/11:30pm 24.7 22.6 11.3 43 7.6 SSE 13 19 7 10 1016.1 1015.4 0.2
22/11:00pm 25.2 22.8 9.9 38 8.5 SE 13 17 7 9 1015.8 1015.1 0.2
22/10:30pm 25.8 23.0 10.0 37 8.8 SE 15 19 8 10 1016.0 1015.3 0.2
22/10:00pm 26.0 23.7 10.6 38 8.7 SE 13 17 7 9 1016.2 1015.5 0.2
22/09:30pm 26.4 23.7 10.5 37 9.0 SE 15 19 8 10 1015.9 1015.2 0.2
22/09:00pm 26.8 24.1 10.5 36 9.2 SSE 15 19 8 10 1015.6 1014.9 0.2
22/08:30pm 27.2 24.8 10.0 34 9.7 SSE 13 19 7 10 1015.0 1014.3 0.2
22/08:00pm 27.7 24.4 9.5 32 10.2 SSE 17 20 9 11 1014.8 1014.1 0.2
22/07:30pm 28.2 24.9 9.5 31 10.5 SSE 17 24 9 13 1014.3 1013.6 0.2
22/07:00pm 29.0 25.2 9.2 29 11.1 SSE 19 28 10 15 1014.0 1013.3 0.2
22/06:30pm 30.2 26.8 9.1 27 11.9 SSE 17 26 9 14 1013.7 1013.0 0.2
22/06:00pm 31.3 29.1 9.5 26 12.4 SSE 11 24 6 13 1013.3 1012.6 0.2
22/05:30pm 32.3 31.1 10.4 26 12.7 ESE 7 17 4 9 1013.0 1012.3 0.2
22/05:00pm 32.7 31.2 10.7 26 12.8 ESE 9 15 5 8 1013.0 1012.3 0.2
22/04:30pm 32.5 32.3 10.5 26 12.8 E 2 7 1 4 1012.8 1012.1 0.2
22/04:00pm 32.0 31.5 10.7 27 12.4 SE 4 9 2 5 1012.9 1012.2 0.2
22/03:30pm 31.6 30.2 10.9 28 12.0 ESE 9 17 5 9 1013.3 1012.6 0.2
22/03:00pm 31.5 30.1 10.8 28 12.0 ENE 9 17 5 9 1013.6 1012.9 0.2
22/02:30pm 32.6 31.3 11.2 27 12.6 E 9 19 5 10 1013.8 1013.1 0.2
22/02:00pm 31.2 28.2 9.4 26 12.4 E 15 26 8 14 1014.2 1013.5 0.2
22/01:30pm 30.4 27.0 9.3 27 11.9 E 17 26 9 14 1014.6 1013.9 0.2
22/01:00pm 30.4 27.0 9.3 27 11.9 E 17 26 9 14 1014.9 1014.2 0.2
22/12:30pm 29.9 26.4 8.9 27 11.7 ESE 17 24 9 13 1015.7 1015.0 0.2
22/12:00pm 28.5 24.9 9.7 31 10.6 E 19 28 10 15 1016.1 1015.4 0.2
22/11:30am 28.8 25.1 9.5 30 10.8 ESE 19 28 10 15 1016.5 1015.8 0.2
22/11:00am 27.8 23.3 8.6 30 10.6 ESE 22 30 12 16 1016.6 1016.0 0.2
22/10:30am 26.9 22.2 7.9 30 10.3 SE 22 30 12 16 1017.1 1016.5 0.2
22/10:00am 26.3 21.6 9.2 34 9.4 SE 24 33 13 18 1017.1 1016.5 0.0
22/09:30am 24.1 20.9 11.8 46 7.0 ESE 20 28 11 15 1016.8 1016.2 0.0
22/09:00am 23.1 20.3 12.7 52 6.0 SE 19 26 10 14 1016.5 1015.8 1.6
22/08:30am 21.5 18.6 12.9 58 4.9 SE 20 28 11 15 1016.1 1015.4 1.6
22/08:00am 20.4 18.4 12.6 61 4.4 SE 15 22 8 12 1016.1 1015.4 1.6
22/07:30am 20.1 18.7 13.3 65 3.9 SE 13 17 7 9 1015.7 1015.0 1.6
22/07:00am 20.0 18.6 13.5 66 3.7 SSE 13 19 7 10 1015.5 1014.8 1.6
22/06:30am 20.2 19.9 15.4 74 2.9 SE 11 17 6 9 1014.9 1014.2 1.6
22/06:00am 20.3 20.5 16.7 80 2.2 SE 11 17 6 9 1014.9 1014.2 1.6
22/05:30am 20.8 20.8 17.2 80 2.2 SSE 13 15 7 8 1014.3 1013.6 1.6
22/05:00am 21.3 23.2 19.8 91 1.0 SSE 9 13 5 7 1013.9 1013.2 1.6
22/04:30am 21.4 24.1 20.6 95 0.5 SSE 7 11 4 6 1014.1 1013.4 1.6
22/04:00am 21.6 24.3 20.6 94 0.7 SSE 7 11 4 6 1013.6 1012.9 1.6
22/03:30am 21.6 24.8 20.6 94 0.7 S 4 6 2 3 1014.0 1013.3 1.6
22/03:00am 21.7 25.1 20.9 95 0.5 ESE 4 6 2 3 1013.5 1012.8 1.6
22/02:30am 21.8 25.1 20.8 94 0.7 NE 4 7 2 4 1013.7 1013.0 1.6
22/02:00am 21.8 25.5 20.8 94 0.7 S 2 6 1 3 1014.0 1013.3 1.6
22/01:30am 21.8 26.0 21.0 95 0.5 CALM 0 0 0 0 1013.7 1013.0 1.6
22/01:00am 21.7 25.4 20.7 94 0.7 SSE 2 4 1 2 1013.6 1012.9 1.6
22/12:30am 22.2 26.4 21.0 93 0.8 CALM 0 0 0 0 1013.6 1012.9 1.6
22/12:00am 22.1 25.9 20.9 93 0.8 WNW 2 4 1 2 1013.9 1013.2 1.6
 
Date/Time
EST
Temp
°C
App
Temp
°C
Dew
Point
°C
Rel
Hum
%
Delta-T
°C
Wind Press
QNH
hPa
Press
MSL
hPa
Rain since
9am
mm
Dir  Spd
km/h
Gust
km/h
Spd
kts
Gust
kts
21/11:30pm 22.2 26.4 21.0 93 0.8 CALM 0 6 0 3 1013.8 1013.1 1.6
21/11:00pm 22.1 26.3 20.9 93 0.8 CALM 0 0 0 0 1013.7 1013.0 1.6
21/10:30pm 22.2 25.5 20.7 91 1.0 SSW 4 4 2 2 1013.9 1013.2 1.6

Other formats

Comma delimited format used in spreadsheet applications
http://www.bom.gov.au/fwo/IDQ60801/IDQ60801.94344.axf

JavaScript Object Notation format (JSON) in row-major order
http://www.bom.gov.au/fwo/IDQ60801/IDQ60801.94344.json

Data quality

Most of these data are generated automatically and are frequently updated. Quality checks on data are not normally performed. It is possible for incorrect values to appear. Refer to information at About Latest Weather Observations and please check the disclaimer before using these data.